Time;durP1;ratioP1;P1;durP2;ratioP2;P2;SDS_P1;SDS_P2;PMS_P1;PMS_P2;Temp;Humidity;BMP_temperature;BMP_pressure;BME280_temperature;BME280_humidity;BME280_pressure;Samples;Min_cycle;Max_cycle;Signal;HPM_P1;HPM_P2
2023/04/01 00:01:13;;;;;;;5.17;1.10;;;10.00;99.90;;;;;;5035374;28;20593;-80
2023/04/01 00:03:39;;;;;;;4.43;1.10;;;10.00;99.90;;;;;;5036670;28;20287;-80
2023/04/01 00:06:05;;;;;;;1.43;0.80;;;10.00;99.90;;;;;;5036974;28;20168;-81
2023/04/01 00:08:31;;;;;;;3.33;0.90;;;10.00;99.90;;;;;;5035461;28;20576;-80
2023/04/01 00:10:57;;;;;;;2.60;0.80;;;10.00;99.90;;;;;;5037088;28;20196;-80
2023/04/01 00:13:25;;;;;;;1.27;0.60;;;10.10;99.90;;;;;;5036127;28;20204;-80
2023/04/01 00:15:51;;;;;;;3.37;0.77;;;10.10;99.90;;;;;;5034798;28;20192;-80
2023/04/01 00:18:16;;;;;;;6.00;1.23;;;10.10;99.90;;;;;;5036932;28;20208;-80
2023/04/01 00:20:47;;;;;;;3.63;0.87;;;10.10;99.90;;;;;;5035508;28;20522;-79
2023/04/01 00:23:13;;;;;;;2.07;0.60;;;10.10;99.90;;;;;;5038142;28;20657;-81
2023/04/01 00:25:39;;;;;;;2.23;0.60;;;10.10;99.90;;;;;;5039278;28;20211;-80
2023/04/01 00:28:04;;;;;;;2.37;0.90;;;10.10;99.90;;;;;;5040899;28;20177;-80
2023/04/01 00:30:30;;;;;;;1.83;0.80;;;10.10;99.90;;;;;;5039540;28;20254;-81
2023/04/01 00:32:56;;;;;;;3.43;0.90;;;10.10;99.90;;;;;;5039167;28;20196;-80
2023/04/01 00:35:22;;;;;;;2.53;1.20;;;10.00;99.90;;;;;;5039982;28;20226;-80
2023/04/01 00:37:47;;;;;;;4.10;0.70;;;10.00;99.90;;;;;;5038777;28;20204;-80
2023/04/01 00:40:31;;;;;;;4.83;0.80;;;10.00;99.90;;;;;;5040921;28;20175;-81
2023/04/01 00:42:57;;;;;;;2.73;0.80;;;10.00;99.90;;;;;;5038691;28;20660;-80
2023/04/01 00:45:28;;;;;;;0.83;0.63;;;10.00;99.90;;;;;;5039684;28;20176;-80
2023/04/01 00:47:54;;;;;;;3.83;0.87;;;10.00;99.90;;;;;;5040921;28;20636;-80
2023/04/01 00:50:24;;;;;;;2.73;0.60;;;10.00;99.90;;;;;;5039953;28;20172;-80
2023/04/01 00:52:50;;;;;;;2.07;0.87;;;9.80;99.90;;;;;;5039935;28;20188;-80
2023/04/01 00:55:19;;;;;;;1.60;0.70;;;10.00;99.90;;;;;;5038406;28;20180;-81
2023/04/01 00:57:47;;;;;;;2.53;0.60;;;9.90;99.90;;;;;;5038522;28;20204;-80
2023/04/01 01:00:14;;;;;;;3.07;0.77;;;10.00;99.90;;;;;;5039653;28;20232;-80
2023/04/01 01:02:43;;;;;;;3.57;0.70;;;9.90;99.90;;;;;;5039664;28;20184;-80
2023/04/01 01:05:13;;;;;;;1.03;0.60;;;10.00;99.90;;;;;;5040071;28;20184;-80
2023/04/01 01:08:11;;;;;;;1.30;0.77;;;9.90;99.90;;;;;;5037422;28;20180;-80
2023/04/01 01:10:39;;;;;;;4.40;0.70;;;10.00;99.90;;;;;;5038191;28;20196;-80
2023/04/01 01:13:22;;;;;;;0.73;0.47;;;9.90;99.90;;;;;;5038662;28;20570;-80
2023/04/01 01:16:00;;;;;;;3.00;0.77;;;9.90;99.90;;;;;;5039417;28;20160;-79
2023/04/01 01:18:46;;;;;;;1.00;0.47;;;9.90;99.90;;;;;;5039007;28;20223;-79
2023/04/01 01:21:33;;;;;;;1.63;0.70;;;9.90;99.90;;;;;;5037993;28;20170;-80
2023/04/01 01:24:22;;;;;;;2.67;0.60;;;9.90;99.90;;;;;;5039173;28;20243;-80
2023/04/01 01:27:12;;;;;;;3.83;0.60;;;9.90;99.90;;;;;;5039549;28;20156;-79
2023/04/01 01:30:09;;;;;;;2.87;0.67;;;9.90;99.90;;;;;;5039759;28;20678;-80
2023/04/01 01:32:56;;;;;;;0.93;0.43;;;9.90;99.90;;;;;;5039209;28;20200;-79
2023/04/01 01:35:28;;;;;;;5.47;0.70;;;9.90;99.90;;;;;;5037833;28;20179;-80
2023/04/01 01:38:03;;;;;;;2.27;0.50;;;9.80;99.90;;;;;;5039068;28;20271;-80
2023/04/01 01:40:33;;;;;;;1.23;0.60;;;9.90;99.90;;;;;;5037871;28;20274;-80
2023/04/01 01:43:05;;;;;;;1.40;0.67;;;9.80;99.90;;;;;;5038946;28;20188;-80
2023/04/01 01:45:34;;;;;;;3.10;0.70;;;9.90;99.90;;;;;;5038862;28;20184;-80
2023/04/01 01:48:01;;;;;;;3.97;0.70;;;9.90;99.90;;;;;;5037714;28;20176;-80
2023/04/01 01:50:28;;;;;;;1.70;0.50;;;9.90;99.90;;;;;;5038792;28;20230;-80
2023/04/01 01:53:08;;;;;;;1.33;0.60;;;9.90;99.90;;;;;;5038589;28;20188;-79
2023/04/01 01:55:37;;;;;;;0.53;0.47;;;9.90;99.90;;;;;;5039026;28;20581;-80
2023/04/01 01:58:23;;;;;;;0.87;0.37;;;9.90;99.90;;;;;;5038831;28;20204;-80
2023/04/01 02:01:00;;;;;;;2.40;0.63;;;9.90;99.90;;;;;;5038550;28;20206;-80
2023/04/01 02:03:31;;;;;;;1.47;0.67;;;9.80;99.90;;;;;;5037345;28;20267;-81
2023/04/01 02:05:59;;;;;;;2.63;0.50;;;9.90;99.90;;;;;;5037615;28;20172;-80
2023/04/01 02:08:36;;;;;;;1.17;0.50;;;9.90;99.90;;;;;;5039116;28;20188;-80
2023/04/01 02:11:08;;;;;;;2.30;0.60;;;9.90;99.90;;;;;;5039109;28;20272;-81
2023/04/01 02:13:44;;;;;;;3.10;0.73;;;9.90;99.90;;;;;;5038487;28;20192;-80
2023/04/01 02:16:52;;;;;;;2.00;0.60;;;9.80;99.90;;;;;;5037862;28;20172;-81
2023/04/01 02:19:22;;;;;;;2.03;0.53;;;9.80;99.90;;;;;;5038212;28;20184;-80
2023/04/01 02:21:51;;;;;;;1.30;0.60;;;9.80;99.90;;;;;;5038909;28;20184;-80
2023/04/01 02:24:21;;;;;;;2.30;0.63;;;9.80;99.90;;;;;;5039427;28;20164;-80
2023/04/01 02:26:47;;;;;;;2.93;0.63;;;9.80;99.90;;;;;;5040104;28;20187;-80
2023/04/01 02:29:13;;;;;;;1.70;0.60;;;9.80;99.90;;;;;;5037896;28;20172;-80
2023/04/01 02:31:40;;;;;;;3.50;0.73;;;9.80;99.90;;;;;;5036988;28;20635;-79
2023/04/01 02:34:05;;;;;;;1.63;0.67;;;9.80;99.90;;;;;;5036065;28;20231;-80
2023/04/01 02:36:32;;;;;;;3.47;0.70;;;9.80;99.90;;;;;;5036943;28;20528;-80
2023/04/01 02:39:02;;;;;;;2.20;0.50;;;9.80;99.90;;;;;;5035222;28;20654;-80
2023/04/01 02:41:28;;;;;;;2.03;0.60;;;9.80;99.90;;;;;;5035977;28;20160;-81
2023/04/01 02:43:54;;;;;;;1.87;0.50;;;9.80;99.90;;;;;;5034788;28;20168;-80
2023/04/01 02:46:20;;;;;;;2.23;0.50;;;9.80;99.90;;;;;;5034385;28;20172;-79
2023/04/01 02:48:45;;;;;;;0.97;0.50;;;9.80;99.90;;;;;;5036897;28;20182;-81
2023/04/01 02:51:11;;;;;;;2.03;0.50;;;9.80;99.90;;;;;;5036946;28;20262;-80
2023/04/01 02:53:36;;;;;;;2.17;0.70;;;9.70;99.90;;;;;;5037248;28;20196;-80
2023/04/01 02:56:02;;;;;;;1.40;0.63;;;9.80;99.90;;;;;;5036593;28;20670;-81
2023/04/01 02:58:28;;;;;;;1.53;0.70;;;9.80;99.90;;;;;;5035277;28;20195;-79
2023/04/01 03:00:53;;;;;;;0.80;0.50;;;9.70;99.90;;;;;;5035270;28;20180;-79
2023/04/01 03:03:19;;;;;;;0.77;0.60;;;9.70;99.90;;;;;;5035786;28;20192;-80
2023/04/01 03:05:44;;;;;;;2.00;0.67;;;9.70;99.90;;;;;;5036858;28;20695;-80
2023/04/01 03:08:11;;;;;;;2.50;0.70;;;9.70;99.90;;;;;;5034789;28;20539;-81
2023/04/01 03:10:37;;;;;;;2.20;0.50;;;9.70;99.90;;;;;;5036763;28;20226;-80
2023/04/01 03:13:03;;;;;;;1.67;0.60;;;9.70;99.90;;;;;;5035250;28;20212;-80
2023/04/01 03:15:28;;;;;;;2.60;0.70;;;9.70;99.90;;;;;;5036676;28;20184;-80
2023/04/01 03:17:54;;;;;;;1.83;0.97;;;9.70;99.90;;;;;;5035411;28;20660;-80
2023/04/01 03:20:20;;;;;;;2.30;0.67;;;9.70;99.90;;;;;;5035634;28;20624;-80
2023/04/01 03:22:46;;;;;;;2.33;0.70;;;9.70;99.90;;;;;;5036686;28;20188;-80
2023/04/01 03:25:12;;;;;;;3.33;0.60;;;9.70;99.90;;;;;;5035152;28;20302;-81
2023/04/01 03:27:37;;;;;;;3.60;0.60;;;9.70;99.90;;;;;;5036667;28;20180;-79
2023/04/01 03:30:05;;;;;;;2.13;0.80;;;9.70;99.90;;;;;;5036396;28;20644;-81
2023/04/01 03:32:31;;;;;;;3.93;0.83;;;9.70;99.90;;;;;;5035229;28;20196;-80
2023/04/01 03:34:56;;;;;;;0.90;0.50;;;9.70;99.90;;;;;;5036115;28;20640;-79
2023/04/01 03:37:23;;;;;;;0.73;0.60;;;9.70;99.90;;;;;;5035905;28;20743;-79
2023/04/01 03:39:49;;;;;;;1.47;0.60;;;9.70;99.90;;;;;;5036378;28;20206;-80
2023/04/01 03:42:15;;;;;;;1.10;0.60;;;9.70;99.90;;;;;;5034532;28;20216;-81
2023/04/01 03:44:40;;;;;;;2.03;0.63;;;9.70;99.90;;;;;;5035199;28;20732;-80
2023/04/01 03:47:06;;;;;;;1.53;0.50;;;9.70;99.90;;;;;;5035409;28;20531;-79
2023/04/01 03:49:32;;;;;;;1.33;0.60;;;9.70;99.90;;;;;;5034975;28;20535;-80
2023/04/01 03:51:58;;;;;;;0.70;0.30;;;9.70;99.90;;;;;;5036494;28;20196;-79
2023/04/01 03:54:24;;;;;;;1.03;0.70;;;9.70;99.90;;;;;;5035051;28;20188;-79
2023/04/01 03:56:50;;;;;;;1.97;0.60;;;9.70;99.90;;;;;;5038161;28;20214;-79
2023/04/01 03:59:15;;;;;;;0.80;0.43;;;9.70;99.90;;;;;;5035333;28;20185;-78
2023/04/01 04:01:41;;;;;;;2.90;0.50;;;9.70;99.90;;;;;;5036779;28;20188;-78
2023/04/01 04:04:07;;;;;;;1.03;0.53;;;9.70;99.90;;;;;;5036180;28;20168;-78
2023/04/01 04:06:33;;;;;;;1.50;0.60;;;9.70;99.90;;;;;;5035184;28;20177;-78
2023/04/01 04:08:58;;;;;;;1.37;0.50;;;9.70;99.90;;;;;;5035415;28;20191;-77
2023/04/01 04:11:24;;;;;;;3.87;0.80;;;9.70;99.90;;;;;;5036163;28;20254;-77
2023/04/01 04:13:50;;;;;;;0.47;0.47;;;9.70;99.90;;;;;;5036569;28;20177;-78
2023/04/01 04:16:17;;;;;;;1.10;0.60;;;9.70;99.90;;;;;;5034853;28;20275;-77
2023/04/01 04:18:42;;;;;;;2.03;0.77;;;9.70;99.90;;;;;;5034612;28;20200;-78
2023/04/01 04:21:12;;;;;;;1.40;0.60;;;9.70;99.90;;;;;;5034634;28;20172;-77
2023/04/01 04:23:38;;;;;;;2.50;0.90;;;9.70;99.90;;;;;;5035789;28;20207;-78
2023/04/01 04:26:06;;;;;;;0.53;0.47;;;9.70;99.90;;;;;;5036723;28;20262;-78
2023/04/01 04:28:32;;;;;;;0.50;0.50;;;9.70;99.90;;;;;;5037196;28;20184;-78
2023/04/01 04:30:58;;;;;;;1.83;0.60;;;9.70;99.90;;;;;;5037533;28;20524;-78
2023/04/01 04:33:25;;;;;;;2.43;0.60;;;9.70;99.90;;;;;;5036264;28;20230;-78
2023/04/01 04:35:51;;;;;;;1.33;0.60;;;9.70;99.90;;;;;;5036833;28;20191;-78
2023/04/01 04:38:17;;;;;;;1.83;0.60;;;9.70;99.90;;;;;;5034961;28;20683;-78
2023/04/01 04:40:43;;;;;;;1.33;0.60;;;9.70;99.90;;;;;;5036201;28;20218;-77
2023/04/01 04:43:11;;;;;;;0.83;0.70;;;9.70;99.90;;;;;;5036559;28;20281;-78
2023/04/01 04:45:37;;;;;;;0.80;0.80;;;9.70;99.90;;;;;;5036026;28;20348;-77
2023/04/01 04:48:03;;;;;;;1.20;0.77;;;9.70;99.90;;;;;;5036736;28;20226;-78
2023/04/01 04:50:28;;;;;;;1.03;0.73;;;9.70;99.90;;;;;;5036093;28;20547;-79
2023/04/01 04:52:54;;;;;;;0.83;0.70;;;9.70;99.90;;;;;;5036051;28;20195;-78
2023/04/01 04:55:20;;;;;;;1.30;0.60;;;9.70;99.90;;;;;;5034605;28;20604;-78
2023/04/01 04:57:46;;;;;;;3.80;0.80;;;9.70;99.90;;;;;;5035093;28;20560;-78
2023/04/01 05:00:12;;;;;;;0.87;0.60;;;9.70;99.90;;;;;;5035929;28;20171;-78
2023/04/01 05:02:37;;;;;;;1.20;0.77;;;9.70;99.90;;;;;;5035873;28;20192;-77
2023/04/01 05:05:04;;;;;;;1.30;0.60;;;9.70;99.90;;;;;;5034185;28;20246;-77
2023/04/01 05:07:29;;;;;;;1.10;0.80;;;9.70;99.90;;;;;;5034141;28;20180;-78
2023/04/01 05:09:55;;;;;;;1.00;0.70;;;9.70;99.90;;;;;;5034443;28;20196;-78
2023/04/01 05:12:21;;;;;;;2.03;1.13;;;9.70;99.90;;;;;;5035599;28;20296;-78
2023/04/01 05:14:46;;;;;;;2.87;1.10;;;9.70;99.90;;;;;;5034222;28;20188;-78
2023/04/01 05:17:12;;;;;;;1.63;0.80;;;9.60;99.90;;;;;;5035499;28;20207;-78
2023/04/01 05:19:38;;;;;;;1.60;1.00;;;9.70;99.90;;;;;;5035126;28;20310;-77
2023/04/01 05:22:04;;;;;;;3.57;1.07;;;9.70;99.90;;;;;;5033725;28;20232;-78
2023/04/01 05:24:30;;;;;;;1.17;1.00;;;9.70;99.90;;;;;;5033836;28;20207;-78
2023/04/01 05:26:57;;;;;;;1.00;0.83;;;9.70;99.90;;;;;;5033651;28;20272;-78
2023/04/01 05:29:23;;;;;;;1.10;1.00;;;9.70;99.90;;;;;;5035665;28;20168;-78
2023/04/01 05:31:48;;;;;;;1.10;0.93;;;9.70;99.90;;;;;;5035676;28;20199;-78
2023/04/01 05:34:14;;;;;;;3.83;1.27;;;9.70;99.90;;;;;;5033239;28;20176;-78
2023/04/01 05:36:41;;;;;;;2.80;1.07;;;9.60;99.90;;;;;;5033167;28;20259;-78
2023/04/01 05:39:07;;;;;;;1.63;1.00;;;9.70;99.90;;;;;;5034686;28;20168;-78
2023/04/01 05:41:35;;;;;;;1.47;1.10;;;9.70;99.90;;;;;;5033465;28;20600;-77
2023/04/01 05:44:01;;;;;;;1.70;1.17;;;9.60;99.90;;;;;;5033536;28;20173;-78
2023/04/01 05:46:26;;;;;;;3.60;1.47;;;9.60;99.90;;;;;;5033722;28;20179;-79
2023/04/01 05:48:52;;;;;;;3.07;1.10;;;9.70;99.90;;;;;;5035150;28;20176;-79
2023/04/01 05:51:17;;;;;;;1.40;1.30;;;9.60;99.90;;;;;;5035916;28;20180;-79
2023/04/01 05:53:43;;;;;;;2.10;1.43;;;9.60;99.90;;;;;;5036065;28;20687;-78
2023/04/01 05:56:09;;;;;;;2.43;1.40;;;9.60;99.90;;;;;;5036494;28;20647;-78
2023/04/01 05:58:36;;;;;;;1.67;1.33;;;9.60;99.90;;;;;;5035528;28;20231;-78
2023/04/01 06:01:07;;;;;;;1.90;1.40;;;9.60;99.90;;;;;;5034810;28;20176;-79
2023/04/01 06:03:33;;;;;;;1.77;1.40;;;9.60;99.90;;;;;;5034664;28;20691;-78
2023/04/01 06:06:00;;;;;;;1.87;1.30;;;9.60;99.90;;;;;;5035649;28;20168;-79
2023/04/01 06:08:27;;;;;;;2.33;1.43;;;9.60;99.90;;;;;;5036173;28;20226;-79
2023/04/01 06:11:34;;;;;;;2.43;1.50;;;9.60;99.90;;;;;;5034076;28;20199;-78
2023/04/01 06:14:23;;;;;;;2.83;1.93;;;9.70;99.90;;;;;;5014531;28;20226;-78
2023/04/01 06:17:06;;;;;;;3.00;1.60;;;9.60;99.90;;;;;;5036393;28;20195;-78
2023/04/01 06:19:50;;;;;;;2.93;1.80;;;9.70;99.90;;;;;;5038848;28;20153;-82
2023/04/01 06:22:54;;;;;;;2.13;1.77;;;9.60;99.90;;;;;;5040950;28;20208;-82
2023/04/01 06:25:43;;;;;;;1.60;1.40;;;9.70;99.90;;;;;;5048669;28;20188;-82
2023/04/01 06:28:38;;;;;;;3.20;2.00;;;9.70;99.90;;;;;;5032191;28;20191;-82
2023/04/01 06:31:49;;;;;;;2.47;1.93;;;9.70;99.90;;;;;;5036652;28;20177;-82
2023/04/01 06:34:41;;;;;;;3.13;1.93;;;9.70;99.90;;;;;;5037065;28;20682;-82
2023/04/01 06:37:27;;;;;;;2.67;1.83;;;9.70;99.90;;;;;;5036569;28;20275;-83
2023/04/01 06:40:14;;;;;;;2.70;1.73;;;9.70;99.90;;;;;;5035279;28;20230;-82
2023/04/01 06:43:33;;;;;;;2.67;2.03;;;9.70;99.90;;;;;;5034264;28;20257;-79
2023/04/01 06:46:11;;;;;;;2.00;1.80;;;9.70;99.90;;;;;;5036462;28;20624;-79
2023/04/01 06:49:07;;;;;;;2.57;1.87;;;9.70;99.90;;;;;;5036185;28;20172;-80
2023/04/01 06:52:02;;;;;;;2.17;1.97;;;9.70;99.90;;;;;;5035975;28;20164;-79
2023/04/01 06:54:40;;;;;;;2.00;1.80;;;9.70;99.90;;;;;;5036256;28;20238;-79
2023/04/01 06:57:31;;;;;;;2.17;1.97;;;9.70;99.90;;;;;;5037473;28;20183;-81
2023/04/01 07:00:00;;;;;;;4.03;1.80;;;9.70;99.90;;;;;;5036444;28;20161;-80
2023/04/01 07:02:48;;;;;;;3.50;1.90;;;9.70;99.90;;;;;;5034837;28;20575;-80
2023/04/01 07:05:15;;;;;;;2.03;1.83;;;9.70;99.90;;;;;;5035795;28;20172;-80
2023/04/01 07:07:44;;;;;;;2.00;1.80;;;9.70;99.90;;;;;;5036788;28;20552;-80
2023/04/01 07:10:52;;;;;;;3.77;1.70;;;9.70;99.90;;;;;;5034653;28;20176;-80
2023/04/01 07:13:27;;;;;;;2.20;2.00;;;9.70;99.90;;;;;;5012608;28;20223;-77
2023/04/01 07:16:16;;;;;;;2.37;2.03;;;9.70;99.90;;;;;;5032557;28;20249;-78
2023/04/01 07:18:47;;;;;;;3.43;1.80;;;9.70;99.90;;;;;;5033525;28;20230;-78
2023/04/01 07:21:24;;;;;;;2.20;2.00;;;9.70;99.90;;;;;;5033383;28;20175;-78
2023/04/01 07:23:51;;;;;;;2.17;1.93;;;9.70;99.90;;;;;;5034581;28;20628;-78
2023/04/01 07:26:20;;;;;;;1.93;1.80;;;9.70;99.90;;;;;;5034364;28;20643;-79
2023/04/01 07:28:47;;;;;;;1.97;1.87;;;9.70;99.90;;;;;;5033927;28;20564;-78
2023/04/01 07:31:30;;;;;;;2.40;2.10;;;9.70;99.90;;;;;;5033230;28;20176;-78
2023/04/01 07:34:15;;;;;;;2.10;1.90;;;9.70;99.90;;;;;;5033976;28;20176;-79
2023/04/01 07:37:05;;;;;;;3.60;2.50;;;9.70;99.90;;;;;;5035644;28;20190;-78
2023/04/01 07:39:46;;;;;;;5.27;2.00;;;9.80;99.90;;;;;;5034078;28;20569;-78
2023/04/01 07:42:42;;;;;;;2.80;2.60;;;9.80;99.90;;;;;;5034202;28;20188;-78
2023/04/01 07:45:28;;;;;;;3.90;2.50;;;9.80;99.90;;;;;;5033074;28;20621;-78
2023/04/01 07:48:12;;;;;;;2.60;2.40;;;9.80;99.90;;;;;;5033215;28;20304;-78
2023/04/01 07:50:57;;;;;;;2.67;2.40;;;9.80;99.90;;;;;;5033646;28;20267;-78
2023/04/01 07:53:25;;;;;;;2.33;2.13;;;9.80;99.90;;;;;;5034163;28;20192;-79
2023/04/01 07:56:00;;;;;;;2.93;2.60;;;9.80;99.90;;;;;;5035725;28;20179;-81
2023/04/01 07:58:35;;;;;;;3.53;2.97;;;9.80;99.90;;;;;;5035308;28;20254;-80
2023/04/01 08:01:16;;;;;;;4.57;3.50;;;9.80;99.90;;;;;;5035038;28;20542;-80
2023/04/01 08:04:11;;;;;;;4.00;3.43;;;9.90;99.90;;;;;;5036565;28;20161;-81
2023/04/01 08:06:45;;;;;;;5.37;3.73;;;9.90;99.90;;;;;;5035395;28;20165;-81
2023/04/01 08:09:26;;;;;;;4.80;4.30;;;9.80;99.90;;;;;;5036729;28;20591;-81
2023/04/01 08:12:01;;;;;;;4.63;3.70;;;9.80;99.90;;;;;;5036394;28;20259;-81
2023/04/01 08:15:03;;;;;;;4.37;3.97;;;9.90;99.90;;;;;;5036504;28;20240;-82
2023/04/01 08:17:36;;;;;;;4.77;4.17;;;9.90;99.90;;;;;;5035458;28;20222;-81
2023/04/01 08:20:23;;;;;;;4.03;3.63;;;9.90;99.90;;;;;;5035130;28;20188;-82
2023/04/01 08:23:05;;;;;;;5.27;4.17;;;9.90;99.90;;;;;;5036969;28;20219;-82
2023/04/01 08:25:33;;;;;;;3.67;3.33;;;9.90;99.90;;;;;;5036155;28;20187;-82
2023/04/01 08:28:08;;;;;;;4.20;3.80;;;10.00;99.90;;;;;;5035179;28;20179;-83
2023/04/01 08:30:55;;;;;;;4.07;3.67;;;10.00;99.90;;;;;;5036345;28;20190;-83
2023/04/01 08:33:26;;;;;;;4.27;3.30;;;10.00;99.90;;;;;;5036544;28;20199;-83
2023/04/01 08:36:11;;;;;;;3.87;3.40;;;9.90;99.90;;;;;;5036641;28;20167;-83
2023/04/01 08:38:54;;;;;;;3.83;3.43;;;9.90;99.90;;;;;;5034485;28;20223;-83
2023/04/01 08:41:37;;;;;;;3.97;3.10;;;10.00;99.90;;;;;;5034967;28;20230;-83
2023/04/01 08:44:42;;;;;;;3.70;3.30;;;9.90;99.90;;;;;;5036046;28;20169;-82
2023/04/01 08:47:26;;;;;;;3.83;3.43;;;9.90;99.90;;;;;;5039140;28;20169;-83
2023/04/01 08:49:55;;;;;;;4.73;3.77;;;9.90;99.90;;;;;;5039093;28;20204;-82
2023/04/01 08:52:35;;;;;;;4.17;3.60;;;9.90;99.90;;;;;;5040062;28;20250;-82
2023/04/01 08:55:20;;;;;;;5.37;3.80;;;10.00;99.90;;;;;;5040242;28;20250;-83
2023/04/01 08:57:57;;;;;;;4.87;4.37;;;10.00;99.90;;;;;;5040327;28;20689;-83
2023/04/01 09:00:46;;;;;;;5.03;3.93;;;10.00;99.90;;;;;;5038703;28;20251;-83
2023/04/01 09:03:36;;;;;;;6.50;4.30;;;10.10;99.90;;;;;;5039495;28;20199;-82
2023/04/01 09:06:41;;;;;;;5.40;4.23;;;10.00;99.90;;;;;;5038900;28;20161;-82
2023/04/01 09:09:36;;;;;;;6.33;5.33;;;10.10;99.90;;;;;;5040074;28;20157;-80
2023/04/01 09:12:19;;;;;;;7.13;5.27;;;10.10;99.90;;;;;;5037654;28;20696;-80
2023/04/01 09:14:56;;;;;;;7.83;5.40;;;10.10;99.90;;;;;;5036688;28;20740;-79
2023/04/01 09:17:24;;;;;;;6.50;5.80;;;10.10;99.90;;;;;;5036065;28;20195;-78
2023/04/01 09:20:01;;;;;;;6.83;5.50;;;10.20;99.90;;;;;;5039995;28;20244;-80
2023/04/01 09:22:47;;;;;;;8.10;6.67;;;10.20;99.90;;;;;;5039906;28;20651;-81
2023/04/01 09:25:43;;;;;;;7.03;6.30;;;10.20;99.90;;;;;;5039653;28;20205;-81
2023/04/01 09:28:33;;;;;;;6.57;5.90;;;10.20;99.90;;;;;;5038120;28;20184;-81
2023/04/01 09:31:17;;;;;;;8.03;6.93;;;10.70;99.90;;;;;;5039420;28;20164;-79
2023/04/01 09:33:54;;;;;;;7.13;6.40;;;10.20;99.90;;;;;;5040790;28;20164;-81
2023/04/01 09:36:47;;;;;;;7.80;6.43;;;10.30;99.90;;;;;;5041343;28;20176;-82
2023/04/01 09:39:37;;;;;;;7.83;6.23;;;10.30;99.90;;;;;;5038145;28;20223;-81
2023/04/01 09:42:40;;;;;;;7.10;6.20;;;10.30;99.90;;;;;;5039413;28;20240;-80
2023/04/01 09:45:23;;;;;;;11.37;7.00;;;10.30;99.90;;;;;;5041776;28;20190;-81
2023/04/01 09:48:08;;;;;;;8.10;6.83;;;10.30;99.90;;;;;;5043050;28;20516;-80
2023/04/01 09:51:23;;;;;;;10.27;7.10;;;10.40;99.90;;;;;;5043726;28;20199;-81
2023/04/01 09:54:20;;;;;;;8.83;7.27;;;10.40;99.90;;;;;;5021089;28;20192;-81
2023/04/01 09:57:08;;;;;;;9.67;7.80;;;10.40;99.90;;;;;;5043110;28;20161;-80
2023/04/01 09:59:59;;;;;;;11.70;7.93;;;10.40;99.90;;;;;;5041660;28;20726;-81
2023/04/01 10:02:41;;;;;;;12.53;8.30;;;10.40;99.90;;;;;;5041686;28;20200;-82
2023/04/01 10:05:23;;;;;;;10.47;8.27;;;10.50;99.90;;;;;;5043751;28;20241;-81
2023/04/01 10:08:15;;;;;;;12.13;8.27;;;10.40;99.90;;;;;;5042844;28;20200;-85
2023/04/01 10:11:12;;;;;;;9.30;7.50;;;10.40;99.90;;;;;;5041091;28;20192;-85
2023/04/01 10:13:56;;;;;;;9.00;7.27;;;10.40;99.90;;;;;;5039965;28;20286;-83
2023/04/01 10:16:40;;;;;;;11.23;8.13;;;10.50;99.90;;;;;;5038343;28;20521;-81
2023/04/01 10:19:55;;;;;;;9.93;7.83;;;10.50;99.90;;;;;;5037480;28;20215;-83
2023/04/01 10:22:42;;;;;;;10.67;8.03;;;10.50;99.90;;;;;;4967807;28;20237;-82
2023/04/01 10:25:23;;;;;;;10.77;8.50;;;10.50;99.90;;;;;;5037724;28;20169;-81
2023/04/01 10:27:57;;;;;;;11.90;7.57;;;10.50;99.90;;;;;;5038277;28;20207;-82
2023/04/01 10:31:09;;;;;;;11.23;8.27;;;10.50;99.90;;;;;;5038240;28;20182;-81
2023/04/01 10:34:04;;;;;;;9.70;7.93;;;10.40;99.90;;;;;;5037067;28;20225;-82
2023/04/01 10:36:48;;;;;;;9.67;7.57;;;10.50;99.90;;;;;;5041381;28;20156;-80
2023/04/01 10:39:41;;;;;;;10.50;7.90;;;10.40;99.90;;;;;;5040626;28;20192;-79
2023/04/01 10:42:15;;;;;;;11.70;8.23;;;10.40;99.90;;;;;;5039995;28;20235;-80
2023/04/01 10:45:01;;;;;;;9.97;7.63;;;10.40;99.90;;;;;;5039088;28;20226;-80
2023/04/01 10:47:42;;;;;;;8.87;7.97;;;10.40;99.90;;;;;;5038467;28;20191;-80
2023/04/01 10:50:33;;;;;;;9.27;8.30;;;10.50;99.90;;;;;;5038778;28;20175;-79
2023/04/01 10:53:38;;;;;;;9.03;7.53;;;10.50;99.90;;;;;;5040543;28;20211;-78
2023/04/01 10:56:33;;;;;;;8.33;6.83;;;10.40;99.90;;;;;;5037564;28;20659;-80
2023/04/01 10:59:25;;;;;;;9.27;7.27;;;10.50;99.90;;;;;;5037758;28;20192;-82
2023/04/01 11:02:52;;;;;;;9.33;7.07;;;10.40;99.90;;;;;;5036256;28;20286;-82
2023/04/01 11:05:40;;;;;;;8.60;6.80;;;10.40;99.90;;;;;;5037315;28;20224;-81
2023/04/01 11:08:43;;;;;;;7.90;6.97;;;10.50;99.90;;;;;;5036977;28;20206;-80
2023/04/01 11:11:18;;;;;;;8.43;6.73;;;10.40;99.90;;;;;;5035809;28;20195;-81
2023/04/01 11:14:12;;;;;;;7.37;6.37;;;10.40;99.90;;;;;;5036572;28;20636;-82
2023/04/01 11:16:43;;;;;;;9.87;7.30;;;10.40;99.90;;;;;;5037424;28;20199;-81
2023/04/01 11:19:46;;;;;;;8.50;6.93;;;10.40;99.90;;;;;;5036188;28;20763;-82
2023/04/01 11:22:30;;;;;;;7.97;7.10;;;10.40;99.90;;;;;;5036199;28;20238;-83
2023/04/01 11:25:05;;;;;;;8.60;7.03;;;10.40;99.90;;;;;;5037255;28;20543;-82
2023/04/01 11:28:09;;;;;;;7.77;6.97;;;10.40;99.90;;;;;;5036573;28;20164;-82
2023/04/01 11:30:58;;;;;;;9.57;7.00;;;10.40;99.90;;;;;;5025243;28;20237;-82
2023/04/01 11:33:50;;;;;;;7.63;6.83;;;10.40;99.90;;;;;;5037086;28;20672;-82
2023/04/01 11:36:49;;;;;;;8.27;7.37;;;10.50;99.90;;;;;;5036848;28;20172;-83
2023/04/01 11:39:46;;;;;;;8.30;6.93;;;10.50;99.90;;;;;;5037686;28;20657;-82
2023/04/01 11:42:32;;;;;;;7.47;6.67;;;10.60;99.90;;;;;;5019451;28;20235;-82
2023/04/01 11:45:34;;;;;;;7.53;6.53;;;10.60;99.90;;;;;;5034996;28;20174;-81
2023/04/01 11:48:18;;;;;;;9.60;7.27;;;10.70;99.90;;;;;;5036678;28;20191;-79
2023/04/01 11:51:16;;;;;;;7.20;6.17;;;10.70;99.90;;;;;;5034462;28;20175;-79
2023/04/01 11:54:00;;;;;;;8.13;6.30;;;10.70;99.90;;;;;;5034673;28;20164;-80
2023/04/01 11:56:32;;;;;;;6.50;5.60;;;10.70;99.90;;;;;;5034318;28;20179;-79
2023/04/01 11:59:18;;;;;;;10.80;5.73;;;10.60;99.90;;;;;;5035540;28;20245;-80
2023/04/01 12:01:53;;;;;;;5.87;5.07;;;10.70;99.90;;;;;;5035958;28;20195;-79
2023/04/01 12:04:31;;;;;;;5.87;5.27;;;10.70;99.90;;;;;;5034951;28;20256;-79
2023/04/01 12:07:00;;;;;;;6.87;5.30;;;10.60;99.90;;;;;;5035171;28;20175;-79
2023/04/01 12:09:40;;;;;;;5.97;5.37;;;10.70;99.90;;;;;;5034833;28;20187;-79
2023/04/01 12:12:23;;;;;;;6.17;5.27;;;10.70;99.90;;;;;;5035227;28;20216;-82
2023/04/01 12:15:26;;;;;;;6.20;4.70;;;10.70;99.90;;;;;;5036186;28;20664;-80
2023/04/01 12:18:11;;;;;;;5.97;5.23;;;10.70;99.90;;;;;;5037401;28;20196;-81
2023/04/01 12:20:53;;;;;;;9.03;5.53;;;10.80;99.90;;;;;;5039919;28;20164;-82
2023/04/01 12:23:34;;;;;;;8.40;6.33;;;10.70;99.90;;;;;;5040198;28;20188;-80
2023/04/01 12:26:37;;;;;;;6.67;5.60;;;10.70;99.90;;;;;;5040097;28;20164;-80
2023/04/01 12:29:24;;;;;;;8.60;6.57;;;10.80;99.90;;;;;;5040137;28;20180;-81
2023/04/01 12:31:52;;;;;;;8.70;6.53;;;10.80;99.90;;;;;;5039632;28;20192;-81
2023/04/01 12:34:49;;;;;;;7.77;6.77;;;10.80;99.90;;;;;;5040326;28;20191;-81
2023/04/01 12:37:25;;;;;;;7.77;6.60;;;10.80;99.90;;;;;;5040069;28;20172;-81
2023/04/01 12:40:23;;;;;;;9.77;6.77;;;10.80;99.90;;;;;;5039898;28;20539;-82
2023/04/01 12:43:12;;;;;;;8.13;6.33;;;10.90;99.90;;;;;;5040267;28;20196;-83
2023/04/01 12:45:40;;;;;;;8.60;7.50;;;10.90;99.90;;;;;;5039896;28;20160;-81
2023/04/01 12:48:37;;;;;;;12.27;7.47;;;10.90;99.90;;;;;;5040765;28;20176;-82
2023/04/01 12:51:44;;;;;;;10.43;7.60;;;10.90;99.90;;;;;;5041375;28;20164;-81
2023/04/01 12:54:32;;;;;;;8.23;6.53;;;10.90;99.90;;;;;;5041800;28;20214;-82
2023/04/01 12:57:00;;;;;;;9.87;7.10;;;10.90;99.90;;;;;;5039925;28;20165;-82
2023/04/01 13:00:03;;;;;;;7.03;6.33;;;10.90;99.90;;;;;;5039022;28;20184;-81
2023/04/01 13:02:50;;;;;;;7.67;6.27;;;10.90;99.90;;;;;;5041513;28;20192;-82
2023/04/01 13:05:50;;;;;;;7.03;6.33;;;10.90;99.90;;;;;;5040886;28;20224;-80
2023/04/01 13:08:58;;;;;;;8.60;6.50;;;10.90;99.90;;;;;;5041803;28;20173;-83
2023/04/01 13:11:29;;;;;;;9.13;6.60;;;10.90;99.90;;;;;;5041401;28;20771;-83
2023/04/01 13:14:23;;;;;;;8.00;6.00;;;10.90;99.90;;;;;;5040874;28;20298;-83
2023/04/01 13:17:00;;;;;;;7.43;6.20;;;10.80;99.90;;;;;;5040894;28;20648;-84
2023/04/01 13:19:40;;;;;;;7.30;5.97;;;10.80;99.90;;;;;;5041381;28;20560;-84
2023/04/01 13:22:18;;;;;;;7.00;5.63;;;10.80;99.90;;;;;;5040802;28;20613;-83
2023/04/01 13:25:04;;;;;;;6.60;5.37;;;10.80;99.90;;;;;;5041233;28;20231;-84
2023/04/01 13:27:39;;;;;;;7.03;5.10;;;10.80;99.90;;;;;;5041663;28;20188;-82
2023/04/01 13:30:21;;;;;;;5.83;5.13;;;10.80;99.90;;;;;;5040715;28;20164;-83
2023/04/01 13:32:49;;;;;;;6.33;5.47;;;10.80;99.90;;;;;;5040935;28;20238;-83
2023/04/01 13:35:24;;;;;;;8.47;5.80;;;10.80;99.90;;;;;;5042621;28;20682;-82
2023/04/01 13:38:29;;;;;;;6.33;5.27;;;10.70;99.90;;;;;;5041053;28;20206;-82
2023/04/01 13:41:07;;;;;;;6.60;5.40;;;10.70;99.90;;;;;;4984446;28;20248;-83
2023/04/01 13:43:45;;;;;;;7.97;6.27;;;10.70;99.90;;;;;;5049270;28;20236;-82
2023/04/01 13:46:34;;;;;;;7.37;5.53;;;10.70;99.90;;;;;;5041576;28;20161;-82
2023/04/01 13:49:28;;;;;;;7.93;5.57;;;10.70;99.90;;;;;;5041730;28;20253;-83